sensor_id;sensor_type;location;lat;lon;timestamp;temperature;humidity
4207;DHT22;2117;47.972;7.830;2023-01-16T02:33:10;6.60;99.90
4207;DHT22;2117;47.972;7.830;2023-01-16T02:35:51;6.60;99.90
4207;DHT22;2117;47.972;7.830;2023-01-16T02:41:02;6.50;99.90
4207;DHT22;2117;47.972;7.830;2023-01-16T02:46:11;6.50;99.90
4207;DHT22;2117;47.972;7.830;2023-01-16T02:56:47;6.60;99.90
4207;DHT22;2117;47.972;7.830;2023-01-16T02:59:15;6.60;99.90
4207;DHT22;2117;47.972;7.830;2023-01-16T03:01:45;6.50;99.90
4207;DHT22;2117;47.972;7.830;2023-01-16T03:10:02;6.60;99.90
4207;DHT22;2117;47.972;7.830;2023-01-16T03:18:53;6.60;99.90
4207;DHT22;2117;47.972;7.830;2023-01-16T03:26:52;6.60;99.90
4207;DHT22;2117;47.972;7.830;2023-01-16T03:29:30;6.60;99.90
4207;DHT22;2117;47.972;7.830;2023-01-16T03:35:22;6.60;99.90
4207;DHT22;2117;47.972;7.830;2023-01-16T03:37:54;6.60;99.90
4207;DHT22;2117;47.972;7.830;2023-01-16T03:40:25;6.60;99.90
4207;DHT22;2117;47.972;7.830;2023-01-16T03:43:05;6.60;99.90
4207;DHT22;2117;47.972;7.830;2023-01-16T03:45:52;6.70;99.90
4207;DHT22;2117;47.972;7.830;2023-01-16T03:50:55;6.70;99.90
4207;DHT22;2117;47.972;7.830;2023-01-16T03:53:27;6.70;99.90
4207;DHT22;2117;47.972;7.830;2023-01-16T03:56:43;6.50;99.90
4207;DHT22;2117;47.972;7.830;2023-01-16T03:58:48;6.60;99.90
4207;DHT22;2117;47.972;7.830;2023-01-16T04:01:31;6.50;99.90
4207;DHT22;2117;47.972;7.830;2023-01-16T04:04:05;6.50;99.90
4207;DHT22;2117;47.972;7.830;2023-01-16T04:09:08;6.50;99.90
4207;DHT22;2117;47.972;7.830;2023-01-16T04:11:36;6.40;99.90
4207;DHT22;2117;47.972;7.830;2023-01-16T04:14:05;6.50;99.90
4207;DHT22;2117;47.972;7.830;2023-01-16T04:16:32;6.40;99.90
4207;DHT22;2117;47.972;7.830;2023-01-16T04:19:00;6.40;99.90
4207;DHT22;2117;47.972;7.830;2023-01-16T04:21:28;6.40;99.90
4207;DHT22;2117;47.972;7.830;2023-01-16T04:23:55;6.40;99.90
4207;DHT22;2117;47.972;7.830;2023-01-16T04:26:22;6.40;99.90
4207;DHT22;2117;47.972;7.830;2023-01-16T04:28:48;6.40;99.90
4207;DHT22;2117;47.972;7.830;2023-01-16T04:31:19;6.40;99.90
4207;DHT22;2117;47.972;7.830;2023-01-16T04:33:44;6.40;99.90
4207;DHT22;2117;47.972;7.830;2023-01-16T04:36:10;6.30;99.90
4207;DHT22;2117;47.972;7.830;2023-01-16T04:38:35;6.40;99.90
4207;DHT22;2117;47.972;7.830;2023-01-16T04:41:01;6.40;99.90
4207;DHT22;2117;47.972;7.830;2023-01-16T04:43:26;6.40;99.90
4207;DHT22;2117;47.972;7.830;2023-01-16T04:45:52;6.40;99.90
4207;DHT22;2117;47.972;7.830;2023-01-16T04:48:17;6.40;99.90
4207;DHT22;2117;47.972;7.830;2023-01-16T04:50:43;6.40;99.90
4207;DHT22;2117;47.972;7.830;2023-01-16T04:53:08;6.40;99.90
4207;DHT22;2117;47.972;7.830;2023-01-16T04:55:34;6.40;99.90
4207;DHT22;2117;47.972;7.830;2023-01-16T04:58:00;6.30;99.90
4207;DHT22;2117;47.972;7.830;2023-01-16T05:00:25;6.40;99.90
4207;DHT22;2117;47.972;7.830;2023-01-16T05:02:52;6.40;99.90
4207;DHT22;2117;47.972;7.830;2023-01-16T05:05:18;6.40;99.90
4207;DHT22;2117;47.972;7.830;2023-01-16T05:07:43;6.50;99.90
4207;DHT22;2117;47.972;7.830;2023-01-16T05:10:09;6.50;99.90
4207;DHT22;2117;47.972;7.830;2023-01-16T05:12:35;6.50;99.90
4207;DHT22;2117;47.972;7.830;2023-01-16T05:15:01;6.50;99.90
4207;DHT22;2117;47.972;7.830;2023-01-16T05:17:26;6.50;99.90
4207;DHT22;2117;47.972;7.830;2023-01-16T05:19:52;6.50;99.90
4207;DHT22;2117;47.972;7.830;2023-01-16T05:22:18;6.50;99.90
4207;DHT22;2117;47.972;7.830;2023-01-16T05:24:43;6.50;99.90
4207;DHT22;2117;47.972;7.830;2023-01-16T05:27:09;6.50;99.90
4207;DHT22;2117;47.972;7.830;2023-01-16T05:29:34;6.50;99.90
4207;DHT22;2117;47.972;7.830;2023-01-16T05:32:00;6.50;99.90
4207;DHT22;2117;47.972;7.830;2023-01-16T05:34:25;6.50;99.90
4207;DHT22;2117;47.972;7.830;2023-01-16T05:36:51;6.60;99.90
4207;DHT22;2117;47.972;7.830;2023-01-16T05:39:16;6.60;99.90
4207;DHT22;2117;47.972;7.830;2023-01-16T05:41:42;6.60;99.90
4207;DHT22;2117;47.972;7.830;2023-01-16T05:44:08;6.70;99.90
4207;DHT22;2117;47.972;7.830;2023-01-16T05:46:33;6.70;99.90
4207;DHT22;2117;47.972;7.830;2023-01-16T05:48:59;6.80;99.90
4207;DHT22;2117;47.972;7.830;2023-01-16T05:51:24;6.90;99.90
4207;DHT22;2117;47.972;7.830;2023-01-16T05:53:51;6.90;99.90
4207;DHT22;2117;47.972;7.830;2023-01-16T05:56:20;6.90;99.90
4207;DHT22;2117;47.972;7.830;2023-01-16T05:58:46;6.90;99.90
4207;DHT22;2117;47.972;7.830;2023-01-16T06:01:12;6.90;99.90
4207;DHT22;2117;47.972;7.830;2023-01-16T06:03:37;6.90;99.90
4207;DHT22;2117;47.972;7.830;2023-01-16T06:06:03;7.00;99.90
4207;DHT22;2117;47.972;7.830;2023-01-16T06:08:28;7.00;99.90
4207;DHT22;2117;47.972;7.830;2023-01-16T06:10:56;7.00;99.90
4207;DHT22;2117;47.972;7.830;2023-01-16T06:13:22;7.00;99.90
4207;DHT22;2117;47.972;7.830;2023-01-16T06:15:47;7.00;99.90
4207;DHT22;2117;47.972;7.830;2023-01-16T06:18:13;7.00;99.90
4207;DHT22;2117;47.972;7.830;2023-01-16T06:20:40;7.00;99.90
4207;DHT22;2117;47.972;7.830;2023-01-16T06:23:05;7.00;99.90
4207;DHT22;2117;47.972;7.830;2023-01-16T06:25:31;7.00;99.90
4207;DHT22;2117;47.972;7.830;2023-01-16T06:27:56;7.00;99.90
4207;DHT22;2117;47.972;7.830;2023-01-16T06:30:22;7.00;99.90
4207;DHT22;2117;47.972;7.830;2023-01-16T06:32:48;7.00;99.90
4207;DHT22;2117;47.972;7.830;2023-01-16T06:35:15;7.00;99.90
4207;DHT22;2117;47.972;7.830;2023-01-16T06:37:41;7.00;99.90
4207;DHT22;2117;47.972;7.830;2023-01-16T06:40:07;7.10;99.90
4207;DHT22;2117;47.972;7.830;2023-01-16T06:42:33;7.10;99.90
4207;DHT22;2117;47.972;7.830;2023-01-16T06:44:58;7.10;99.90
4207;DHT22;2117;47.972;7.830;2023-01-16T06:47:24;7.00;99.90
4207;DHT22;2117;47.972;7.830;2023-01-16T06:49:49;7.00;99.90
4207;DHT22;2117;47.972;7.830;2023-01-16T06:52:15;7.00;99.90
4207;DHT22;2117;47.972;7.830;2023-01-16T06:54:40;7.10;99.90
4207;DHT22;2117;47.972;7.830;2023-01-16T06:57:06;7.10;99.90
4207;DHT22;2117;47.972;7.830;2023-01-16T06:59:31;7.20;99.90
4207;DHT22;2117;47.972;7.830;2023-01-16T07:01:57;7.20;99.90
4207;DHT22;2117;47.972;7.830;2023-01-16T07:04:23;7.20;99.90
4207;DHT22;2117;47.972;7.830;2023-01-16T07:06:48;7.20;99.90
4207;DHT22;2117;47.972;7.830;2023-01-16T07:09:15;7.20;99.90
4207;DHT22;2117;47.972;7.830;2023-01-16T07:11:42;7.20;99.90
4207;DHT22;2117;47.972;7.830;2023-01-16T07:14:08;7.20;99.90
4207;DHT22;2117;47.972;7.830;2023-01-16T07:16:52;7.20;99.90
4207;DHT22;2117;47.972;7.830;2023-01-16T07:19:36;7.20;99.90
4207;DHT22;2117;47.972;7.830;2023-01-16T07:22:37;7.20;99.90
4207;DHT22;2117;47.972;7.830;2023-01-16T07:25:12;7.30;99.90
4207;DHT22;2117;47.972;7.830;2023-01-16T07:27:39;7.30;99.90
4207;DHT22;2117;47.972;7.830;2023-01-16T07:30:07;7.30;99.90
4207;DHT22;2117;47.972;7.830;2023-01-16T07:32:32;7.40;99.90
4207;DHT22;2117;47.972;7.830;2023-01-16T07:34:58;7.30;99.90
4207;DHT22;2117;47.972;7.830;2023-01-16T07:37:23;7.30;99.90
4207;DHT22;2117;47.972;7.830;2023-01-16T07:39:49;7.40;99.90
4207;DHT22;2117;47.972;7.830;2023-01-16T07:42:14;7.30;99.90
4207;DHT22;2117;47.972;7.830;2023-01-16T07:44:40;7.30;99.90
4207;DHT22;2117;47.972;7.830;2023-01-16T07:47:06;7.40;99.90
4207;DHT22;2117;47.972;7.830;2023-01-16T07:49:31;7.40;99.90
4207;DHT22;2117;47.972;7.830;2023-01-16T07:51:57;7.40;99.90
4207;DHT22;2117;47.972;7.830;2023-01-16T07:54:22;7.50;99.90
4207;DHT22;2117;47.972;7.830;2023-01-16T07:56:48;7.50;99.90
4207;DHT22;2117;47.972;7.830;2023-01-16T07:59:14;7.50;99.90
4207;DHT22;2117;47.972;7.830;2023-01-16T08:01:40;7.60;99.90
4207;DHT22;2117;47.972;7.830;2023-01-16T08:04:05;7.70;99.90
4207;DHT22;2117;47.972;7.830;2023-01-16T08:06:31;7.70;99.90
4207;DHT22;2117;47.972;7.830;2023-01-16T08:08:56;7.70;99.90
4207;DHT22;2117;47.972;7.830;2023-01-16T08:11:22;7.70;99.90
4207;DHT22;2117;47.972;7.830;2023-01-16T08:14:06;7.60;99.90
4207;DHT22;2117;47.972;7.830;2023-01-16T08:16:32;7.70;99.90
4207;DHT22;2117;47.972;7.830;2023-01-16T08:18:58;7.70;99.90
4207;DHT22;2117;47.972;7.830;2023-01-16T08:21:23;7.70;99.90
4207;DHT22;2117;47.972;7.830;2023-01-16T08:23:49;7.70;99.90
4207;DHT22;2117;47.972;7.830;2023-01-16T08:26:15;7.70;99.90
4207;DHT22;2117;47.972;7.830;2023-01-16T08:28:41;7.80;99.90
4207;DHT22;2117;47.972;7.830;2023-01-16T08:31:09;7.70;99.90
4207;DHT22;2117;47.972;7.830;2023-01-16T08:33:38;7.60;99.90
4207;DHT22;2117;47.972;7.830;2023-01-16T08:36:05;7.60;99.90
4207;DHT22;2117;47.972;7.830;2023-01-16T08:38:31;7.60;99.90
4207;DHT22;2117;47.972;7.830;2023-01-16T08:40:57;7.50;99.90
4207;DHT22;2117;47.972;7.830;2023-01-16T08:43:23;7.40;99.90
4207;DHT22;2117;47.972;7.830;2023-01-16T08:46:19;7.30;99.90
4207;DHT22;2117;47.972;7.830;2023-01-16T08:49:05;7.10;99.90
4207;DHT22;2117;47.972;7.830;2023-01-16T08:51:52;7.00;99.90
4207;DHT22;2117;47.972;7.830;2023-01-16T08:54:18;6.90;99.90
4207;DHT22;2117;47.972;7.830;2023-01-16T08:56:43;6.70;99.90
4207;DHT22;2117;47.972;7.830;2023-01-16T08:59:10;6.60;99.90
4207;DHT22;2117;47.972;7.830;2023-01-16T09:01:37;6.50;99.90
4207;DHT22;2117;47.972;7.830;2023-01-16T09:04:04;6.50;99.90
4207;DHT22;2117;47.972;7.830;2023-01-16T09:06:30;6.40;99.90
4207;DHT22;2117;47.972;7.830;2023-01-16T09:08:55;6.30;99.90
4207;DHT22;2117;47.972;7.830;2023-01-16T09:11:21;6.30;99.90
4207;DHT22;2117;47.972;7.830;2023-01-16T09:14:05;6.30;99.90
4207;DHT22;2117;47.972;7.830;2023-01-16T09:16:31;6.30;99.90
4207;DHT22;2117;47.972;7.830;2023-01-16T09:18:57;6.30;99.90
4207;DHT22;2117;47.972;7.830;2023-01-16T09:21:22;6.30;99.90
4207;DHT22;2117;47.972;7.830;2023-01-16T09:23:50;6.30;99.90
4207;DHT22;2117;47.972;7.830;2023-01-16T09:26:17;6.20;99.90
4207;DHT22;2117;47.972;7.830;2023-01-16T09:28:43;6.10;99.90
4207;DHT22;2117;47.972;7.830;2023-01-16T09:31:08;6.10;99.90
4207;DHT22;2117;47.972;7.830;2023-01-16T09:33:34;6.00;99.90
4207;DHT22;2117;47.972;7.830;2023-01-16T09:36:00;6.00;99.90
4207;DHT22;2117;47.972;7.830;2023-01-16T09:38:25;5.90;99.90
4207;DHT22;2117;47.972;7.830;2023-01-16T09:40:56;5.80;99.90
4207;DHT22;2117;47.972;7.830;2023-01-16T09:48:46;5.60;99.90
4207;DHT22;2117;47.972;7.830;2023-01-16T09:51:22;5.50;99.90
4207;DHT22;2117;47.972;7.830;2023-01-16T09:54:12;5.40;99.90
4207;DHT22;2117;47.972;7.830;2023-01-16T09:57:00;5.20;99.90
4207;DHT22;2117;47.972;7.830;2023-01-16T09:59:48;5.20;99.90
4207;DHT22;2117;47.972;7.830;2023-01-16T10:04:47;5.10;99.90
4207;DHT22;2117;47.972;7.830;2023-01-16T10:13:07;5.20;99.90
4207;DHT22;2117;47.972;7.830;2023-01-16T10:18:58;5.20;99.90
4207;DHT22;2117;47.972;7.830;2023-01-16T10:24:02;5.30;99.90
4207;DHT22;2117;47.972;7.830;2023-01-16T10:26:35;5.30;99.90
4207;DHT22;2117;47.972;7.830;2023-01-16T10:30:19;5.40;99.90
4207;DHT22;2117;47.972;7.830;2023-01-16T10:32:46;5.40;99.90
4207;DHT22;2117;47.972;7.830;2023-01-16T10:35:25;5.40;99.90
4207;DHT22;2117;47.972;7.830;2023-01-16T10:37:51;5.30;99.90
4207;DHT22;2117;47.972;7.830;2023-01-16T10:40:25;5.20;99.90
4207;DHT22;2117;47.972;7.830;2023-01-16T10:43:00;5.20;99.90
4207;DHT22;2117;47.972;7.830;2023-01-16T10:45:45;5.20;99.90
4207;DHT22;2117;47.972;7.830;2023-01-16T10:48:30;5.20;99.90
4207;DHT22;2117;47.972;7.830;2023-01-16T10:51:14;5.30;99.90
4207;DHT22;2117;47.972;7.830;2023-01-16T10:53:40;5.30;99.90
4207;DHT22;2117;47.972;7.830;2023-01-16T10:56:06;5.30;99.90
4207;DHT22;2117;47.972;7.830;2023-01-16T10:58:37;5.30;99.90
4207;DHT22;2117;47.972;7.830;2023-01-16T11:01:17;5.30;99.90
4207;DHT22;2117;47.972;7.830;2023-01-16T11:03:53;5.30;99.90
4207;DHT22;2117;47.972;7.830;2023-01-16T11:06:26;5.40;99.90
4207;DHT22;2117;47.972;7.830;2023-01-16T11:11:26;5.50;99.90
4207;DHT22;2117;47.972;7.830;2023-01-16T11:14:34;5.60;99.90
4207;DHT22;2117;47.972;7.830;2023-01-16T11:17:34;5.70;99.90
4207;DHT22;2117;47.972;7.830;2023-01-16T11:20:31;5.80;99.90
4207;DHT22;2117;47.972;7.830;2023-01-16T11:23:12;5.90;99.90
4207;DHT22;2117;47.972;7.830;2023-01-16T11:25:40;6.00;99.90
4207;DHT22;2117;47.972;7.830;2023-01-16T11:28:09;6.00;99.90
4207;DHT22;2117;47.972;7.830;2023-01-16T11:30:43;6.10;99.90
4207;DHT22;2117;47.972;7.830;2023-01-16T11:33:22;6.20;99.90
4207;DHT22;2117;47.972;7.830;2023-01-16T11:36:00;6.30;99.90
4207;DHT22;2117;47.972;7.830;2023-01-16T11:38:29;6.40;99.90
4207;DHT22;2117;47.972;7.830;2023-01-16T11:41:00;6.50;99.90
4207;DHT22;2117;47.972;7.830;2023-01-16T11:43:27;6.60;99.90
4207;DHT22;2117;47.972;7.830;2023-01-16T11:46:38;6.70;99.90
4207;DHT22;2117;47.972;7.830;2023-01-16T11:49:18;6.70;99.90
4207;DHT22;2117;47.972;7.830;2023-01-16T11:51:49;6.80;99.90
4207;DHT22;2117;47.972;7.830;2023-01-16T11:54:26;6.80;99.90
4207;DHT22;2117;47.972;7.830;2023-01-16T12:05:31;7.10;99.90
4207;DHT22;2117;47.972;7.830;2023-01-16T12:19:32;7.30;99.90
4207;DHT22;2117;47.972;7.830;2023-01-16T12:24:41;7.20;99.90
4207;DHT22;2117;47.972;7.830;2023-01-16T12:33:08;6.90;99.90
4207;DHT22;2117;47.972;7.830;2023-01-16T12:38:09;6.90;99.90
4207;DHT22;2117;47.972;7.830;2023-01-16T12:41:00;6.80;99.90
4207;DHT22;2117;47.972;7.830;2023-01-16T12:46:24;6.60;99.90
4207;DHT22;2117;47.972;7.830;2023-01-16T12:56:59;6.40;99.90
4207;DHT22;2117;47.972;7.830;2023-01-16T13:04:44;6.20;99.90
4207;DHT22;2117;47.972;7.830;2023-01-16T13:07:16;6.20;99.90
4207;DHT22;2117;47.972;7.830;2023-01-16T13:09:51;6.10;99.90
4207;DHT22;2117;47.972;7.830;2023-01-16T13:12:39;6.10;99.90
4207;DHT22;2117;47.972;7.830;2023-01-16T13:15:28;6.10;99.90
4207;DHT22;2117;47.972;7.830;2023-01-16T13:18:05;6.10;99.90
4207;DHT22;2117;47.972;7.830;2023-01-16T13:20:32;6.10;99.90
4207;DHT22;2117;47.972;7.830;2023-01-16T13:23:04;6.30;99.90
4207;DHT22;2117;47.972;7.830;2023-01-16T13:25:40;6.30;99.90
4207;DHT22;2117;47.972;7.830;2023-01-16T13:31:06;6.50;99.90
4207;DHT22;2117;47.972;7.830;2023-01-16T13:33:35;6.60;99.90
4207;DHT22;2117;47.972;7.830;2023-01-16T13:41:48;7.00;99.90
4207;DHT22;2117;47.972;7.830;2023-01-16T13:44:20;7.10;99.90
4207;DHT22;2117;47.972;7.830;2023-01-16T13:47:14;7.20;99.90
4207;DHT22;2117;47.972;7.830;2023-01-16T13:49:40;7.30;99.90
4207;DHT22;2117;47.972;7.830;2023-01-16T13:52:20;7.40;99.90
4207;DHT22;2117;47.972;7.830;2023-01-16T13:54:48;7.50;99.90
4207;DHT22;2117;47.972;7.830;2023-01-16T13:57:20;7.50;99.90
4207;DHT22;2117;47.972;7.830;2023-01-16T13:59:52;7.60;99.90
4207;DHT22;2117;47.972;7.830;2023-01-16T14:02:23;7.60;99.90
4207;DHT22;2117;47.972;7.830;2023-01-16T14:13:34;7.70;99.90
4207;DHT22;2117;47.972;7.830;2023-01-16T14:16:01;7.70;99.90
4207;DHT22;2117;47.972;7.830;2023-01-16T14:21:40;7.30;99.90
4207;DHT22;2117;47.972;7.830;2023-01-16T14:24:16;7.30;99.90
4207;DHT22;2117;47.972;7.830;2023-01-16T14:26:56;7.30;99.90
4207;DHT22;2117;47.972;7.830;2023-01-16T14:29:26;7.20;99.90
4207;DHT22;2117;47.972;7.830;2023-01-16T14:34:50;7.20;99.90
4207;DHT22;2117;47.972;7.830;2023-01-16T14:37:33;7.00;99.90
4207;DHT22;2117;47.972;7.830;2023-01-16T14:42:45;6.40;99.90
4207;DHT22;2117;47.972;7.830;2023-01-16T14:45:37;6.10;99.90
4207;DHT22;2117;47.972;7.830;2023-01-16T14:54:11;5.80;99.90
4207;DHT22;2117;47.972;7.830;2023-01-16T14:57:10;5.80;99.90
4207;DHT22;2117;47.972;7.830;2023-01-16T14:59:42;5.80;99.90
4207;DHT22;2117;47.972;7.830;2023-01-16T15:02:28;5.90;99.90
4207;DHT22;2117;47.972;7.830;2023-01-16T15:05:18;5.90;99.90
4207;DHT22;2117;47.972;7.830;2023-01-16T15:07:57;5.90;99.90
4207;DHT22;2117;47.972;7.830;2023-01-16T15:10:25;6.00;99.90
4207;DHT22;2117;47.972;7.830;2023-01-16T15:12:53;6.00;99.90
4207;DHT22;2117;47.972;7.830;2023-01-16T15:15:36;6.10;99.90
4207;DHT22;2117;47.972;7.830;2023-01-16T15:18:02;6.10;99.90
4207;DHT22;2117;47.972;7.830;2023-01-16T15:20:46;6.00;99.90
4207;DHT22;2117;47.972;7.830;2023-01-16T15:23:36;5.90;99.90
4207;DHT22;2117;47.972;7.830;2023-01-16T15:31:43;5.80;99.90
4207;DHT22;2117;47.972;7.830;2023-01-16T15:36:41;5.70;99.90
4207;DHT22;2117;47.972;7.830;2023-01-16T15:39:23;5.70;99.90
4207;DHT22;2117;47.972;7.830;2023-01-16T15:42:01;5.70;99.90
4207;DHT22;2117;47.972;7.830;2023-01-16T15:44:47;5.70;99.90
4207;DHT22;2117;47.972;7.830;2023-01-16T15:52:59;5.80;99.90
4207;DHT22;2117;47.972;7.830;2023-01-16T15:55:27;5.70;99.90
4207;DHT22;2117;47.972;7.830;2023-01-16T15:58:01;5.70;99.90
4207;DHT22;2117;47.972;7.830;2023-01-16T16:00:31;5.60;99.90
4207;DHT22;2117;47.972;7.830;2023-01-16T16:05:36;5.60;99.90
4207;DHT22;2117;47.972;7.830;2023-01-16T16:08:03;5.50;99.90
4207;DHT22;2117;47.972;7.830;2023-01-16T16:10:30;5.50;99.90
4207;DHT22;2117;47.972;7.830;2023-01-16T16:13:17;5.40;99.90
4207;DHT22;2117;47.972;7.830;2023-01-16T16:15:58;5.30;99.90
4207;DHT22;2117;47.972;7.830;2023-01-16T16:18:58;5.30;99.90
4207;DHT22;2117;47.972;7.830;2023-01-16T16:21:31;5.20;99.90
4207;DHT22;2117;47.972;7.830;2023-01-16T16:24:03;5.20;99.90
4207;DHT22;2117;47.972;7.830;2023-01-16T16:26:30;5.10;99.90
4207;DHT22;2117;47.972;7.830;2023-01-16T16:29:00;5.10;99.90
4207;DHT22;2117;47.972;7.830;2023-01-16T16:31:33;5.10;99.90
4207;DHT22;2117;47.972;7.830;2023-01-16T16:34:19;5.00;99.90
4207;DHT22;2117;47.972;7.830;2023-01-16T16:36:50;5.00;99.90
4207;DHT22;2117;47.972;7.830;2023-01-16T16:41:59;5.00;99.90
4207;DHT22;2117;47.972;7.830;2023-01-16T16:47:31;5.00;99.90
4207;DHT22;2117;47.972;7.830;2023-01-16T16:49:57;5.00;99.90
4207;DHT22;2117;47.972;7.830;2023-01-16T16:52:31;5.00;99.90
4207;DHT22;2117;47.972;7.830;2023-01-16T16:54:59;5.00;99.90
4207;DHT22;2117;47.972;7.830;2023-01-16T16:57:28;5.10;99.90
4207;DHT22;2117;47.972;7.830;2023-01-16T16:59:55;5.10;99.90
4207;DHT22;2117;47.972;7.830;2023-01-16T17:02:21;5.10;99.90
4207;DHT22;2117;47.972;7.830;2023-01-16T17:04:47;5.10;99.90
4207;DHT22;2117;47.972;7.830;2023-01-16T17:07:13;5.30;99.90
4207;DHT22;2117;47.972;7.830;2023-01-16T17:09:39;5.20;99.90
4207;DHT22;2117;47.972;7.830;2023-01-16T17:12:17;5.20;99.90
4207;DHT22;2117;47.972;7.830;2023-01-16T17:14:43;5.30;99.90
4207;DHT22;2117;47.972;7.830;2023-01-16T17:17:15;5.30;99.90
4207;DHT22;2117;47.972;7.830;2023-01-16T17:19:42;5.40;99.90
4207;DHT22;2117;47.972;7.830;2023-01-16T17:22:09;5.40;99.90
4207;DHT22;2117;47.972;7.830;2023-01-16T17:24:36;5.40;99.90
4207;DHT22;2117;47.972;7.830;2023-01-16T17:27:01;5.50;99.90
4207;DHT22;2117;47.972;7.830;2023-01-16T17:29:28;5.50;99.90
4207;DHT22;2117;47.972;7.830;2023-01-16T17:31:54;5.50;99.90
4207;DHT22;2117;47.972;7.830;2023-01-16T17:34:20;5.50;99.90
4207;DHT22;2117;47.972;7.830;2023-01-16T17:36:46;5.60;99.90
4207;DHT22;2117;47.972;7.830;2023-01-16T17:39:12;5.60;99.90
4207;DHT22;2117;47.972;7.830;2023-01-16T17:41:38;5.70;99.90
4207;DHT22;2117;47.972;7.830;2023-01-16T17:44:15;5.70;99.90
4207;DHT22;2117;47.972;7.830;2023-01-16T17:47:00;5.70;99.90
4207;DHT22;2117;47.972;7.830;2023-01-16T17:49:25;5.70;99.90
4207;DHT22;2117;47.972;7.830;2023-01-16T17:51:51;5.70;99.90
4207;DHT22;2117;47.972;7.830;2023-01-16T17:54:16;5.70;99.90
4207;DHT22;2117;47.972;7.830;2023-01-16T17:57:02;5.80;99.90
4207;DHT22;2117;47.972;7.830;2023-01-16T17:59:27;5.80;99.90
4207;DHT22;2117;47.972;7.830;2023-01-16T18:01:54;5.70;99.90
4207;DHT22;2117;47.972;7.830;2023-01-16T18:04:20;5.80;99.90
4207;DHT22;2117;47.972;7.830;2023-01-16T18:06:46;5.80;99.90
4207;DHT22;2117;47.972;7.830;2023-01-16T18:09:12;5.80;99.90
4207;DHT22;2117;47.972;7.830;2023-01-16T18:11:42;5.80;99.90
4207;DHT22;2117;47.972;7.830;2023-01-16T18:14:27;5.80;99.90
4207;DHT22;2117;47.972;7.830;2023-01-16T18:17:13;5.80;99.90
4207;DHT22;2117;47.972;7.830;2023-01-16T18:19:53;5.80;99.90
4207;DHT22;2117;47.972;7.830;2023-01-16T18:22:23;5.80;99.90
4207;DHT22;2117;47.972;7.830;2023-01-16T18:24:49;5.80;99.90
4207;DHT22;2117;47.972;7.830;2023-01-16T18:27:16;5.80;99.90
4207;DHT22;2117;47.972;7.830;2023-01-16T18:29:43;5.70;99.90
4207;DHT22;2117;47.972;7.830;2023-01-16T18:32:11;5.70;99.90
4207;DHT22;2117;47.972;7.830;2023-01-16T18:34:50;5.80;99.90
4207;DHT22;2117;47.972;7.830;2023-01-16T18:37:17;5.70;99.90
4207;DHT22;2117;47.972;7.830;2023-01-16T18:39:44;5.70;99.90
4207;DHT22;2117;47.972;7.830;2023-01-16T18:42:28;5.60;99.90
4207;DHT22;2117;47.972;7.830;2023-01-16T18:45:13;5.50;99.90
4207;DHT22;2117;47.972;7.830;2023-01-16T18:47:57;5.30;99.90
4207;DHT22;2117;47.972;7.830;2023-01-16T18:50:42;5.20;99.90
4207;DHT22;2117;47.972;7.830;2023-01-16T18:53:34;5.00;99.90
4207;DHT22;2117;47.972;7.830;2023-01-16T18:56:24;4.80;99.90
4207;DHT22;2117;47.972;7.830;2023-01-16T18:59:20;4.70;99.90
4207;DHT22;2117;47.972;7.830;2023-01-16T19:04:41;4.60;99.90
4207;DHT22;2117;47.972;7.830;2023-01-16T19:07:13;4.60;99.90
4207;DHT22;2117;47.972;7.830;2023-01-16T19:09:43;4.60;99.90
4207;DHT22;2117;47.972;7.830;2023-01-16T19:12:09;4.60;99.90
4207;DHT22;2117;47.972;7.830;2023-01-16T19:14:39;4.60;99.90
4207;DHT22;2117;47.972;7.830;2023-01-16T19:17:06;4.60;99.90
4207;DHT22;2117;47.972;7.830;2023-01-16T19:19:32;4.60;99.90
4207;DHT22;2117;47.972;7.830;2023-01-16T19:21:58;4.50;99.90
4207;DHT22;2117;47.972;7.830;2023-01-16T19:24:24;4.50;99.90
4207;DHT22;2117;47.972;7.830;2023-01-16T19:26:52;4.50;99.90
4207;DHT22;2117;47.972;7.830;2023-01-16T19:29:19;4.50;99.90
4207;DHT22;2117;47.972;7.830;2023-01-16T19:31:45;4.50;99.90
4207;DHT22;2117;47.972;7.830;2023-01-16T19:34:11;4.50;99.90
4207;DHT22;2117;47.972;7.830;2023-01-16T19:36:38;4.50;99.90
4207;DHT22;2117;47.972;7.830;2023-01-16T19:39:08;4.40;99.90
4207;DHT22;2117;47.972;7.830;2023-01-16T19:41:34;4.50;99.90
4207;DHT22;2117;47.972;7.830;2023-01-16T19:44:19;4.40;99.90
4207;DHT22;2117;47.972;7.830;2023-01-16T19:47:04;4.40;99.90
4207;DHT22;2117;47.972;7.830;2023-01-16T19:49:29;4.30;99.90
4207;DHT22;2117;47.972;7.830;2023-01-16T19:51:55;4.40;99.90
4207;DHT22;2117;47.972;7.830;2023-01-16T19:54:22;4.30;99.90
4207;DHT22;2117;47.972;7.830;2023-01-16T19:56:48;4.30;99.90
4207;DHT22;2117;47.972;7.830;2023-01-16T19:59:13;4.30;99.90
4207;DHT22;2117;47.972;7.830;2023-01-16T20:01:59;4.30;99.90
4207;DHT22;2117;47.972;7.830;2023-01-16T20:04:27;4.20;99.90
4207;DHT22;2117;47.972;7.830;2023-01-16T20:06:53;4.20;99.90
4207;DHT22;2117;47.972;7.830;2023-01-16T20:09:20;4.30;99.90
4207;DHT22;2117;47.972;7.830;2023-01-16T20:11:46;4.30;99.90
4207;DHT22;2117;47.972;7.830;2023-01-16T20:14:31;4.20;99.90
4207;DHT22;2117;47.972;7.830;2023-01-16T20:16:57;4.20;99.90
4207;DHT22;2117;47.972;7.830;2023-01-16T20:19:23;4.20;99.90
4207;DHT22;2117;47.972;7.830;2023-01-16T20:21:51;4.20;99.90
4207;DHT22;2117;47.972;7.830;2023-01-16T20:24:17;4.20;99.90
4207;DHT22;2117;47.972;7.830;2023-01-16T20:26:44;4.20;99.90
4207;DHT22;2117;47.972;7.830;2023-01-16T20:29:11;4.20;99.90
4207;DHT22;2117;47.972;7.830;2023-01-16T20:31:37;4.20;99.90
4207;DHT22;2117;47.972;7.830;2023-01-16T20:34:03;4.20;99.90
4207;DHT22;2117;47.972;7.830;2023-01-16T20:36:28;4.10;99.90
4207;DHT22;2117;47.972;7.830;2023-01-16T20:38:54;4.10;99.90
4207;DHT22;2117;47.972;7.830;2023-01-16T20:41:21;4.10;99.90
4207;DHT22;2117;47.972;7.830;2023-01-16T20:44:18;4.10;99.90
4207;DHT22;2117;47.972;7.830;2023-01-16T20:47:04;4.10;99.90
4207;DHT22;2117;47.972;7.830;2023-01-16T20:49:30;4.10;99.90
4207;DHT22;2117;47.972;7.830;2023-01-16T20:51:56;4.10;99.90
4207;DHT22;2117;47.972;7.830;2023-01-16T20:54:22;4.10;99.90
4207;DHT22;2117;47.972;7.830;2023-01-16T20:56:49;4.10;99.90
4207;DHT22;2117;47.972;7.830;2023-01-16T20:59:15;4.10;99.90
4207;DHT22;2117;47.972;7.830;2023-01-16T21:01:40;4.10;99.90
4207;DHT22;2117;47.972;7.830;2023-01-16T21:04:06;4.10;99.90
4207;DHT22;2117;47.972;7.830;2023-01-16T21:06:32;4.10;99.90
4207;DHT22;2117;47.972;7.830;2023-01-16T21:08:58;4.10;99.90
4207;DHT22;2117;47.972;7.830;2023-01-16T21:11:24;4.20;99.90
4207;DHT22;2117;47.972;7.830;2023-01-16T21:14:09;4.20;99.90
4207;DHT22;2117;47.972;7.830;2023-01-16T21:16:37;4.10;99.90
4207;DHT22;2117;47.972;7.830;2023-01-16T21:19:21;4.10;99.90
4207;DHT22;2117;47.972;7.830;2023-01-16T21:22:05;4.10;99.90
4207;DHT22;2117;47.972;7.830;2023-01-16T21:24:31;4.10;99.90
4207;DHT22;2117;47.972;7.830;2023-01-16T21:26:56;4.10;99.90
4207;DHT22;2117;47.972;7.830;2023-01-16T21:29:22;4.10;99.90
4207;DHT22;2117;47.972;7.830;2023-01-16T21:31:47;4.10;99.90
4207;DHT22;2117;47.972;7.830;2023-01-16T21:34:13;4.10;99.90
4207;DHT22;2117;47.972;7.830;2023-01-16T21:36:39;4.10;99.90
4207;DHT22;2117;47.972;7.830;2023-01-16T21:39:08;4.20;99.90
4207;DHT22;2117;47.972;7.830;2023-01-16T21:41:35;4.20;99.90
4207;DHT22;2117;47.972;7.830;2023-01-16T21:44:21;4.20;99.90
4207;DHT22;2117;47.972;7.830;2023-01-16T21:47:05;4.20;99.90
4207;DHT22;2117;47.972;7.830;2023-01-16T21:49:30;4.20;99.90
4207;DHT22;2117;47.972;7.830;2023-01-16T21:51:56;4.30;99.90
4207;DHT22;2117;47.972;7.830;2023-01-16T21:54:22;4.20;99.90
4207;DHT22;2117;47.972;7.830;2023-01-16T21:56:47;4.30;99.90
4207;DHT22;2117;47.972;7.830;2023-01-16T21:59:14;4.30;99.90
4207;DHT22;2117;47.972;7.830;2023-01-16T22:01:39;4.30;99.90